Time;durP1;ratioP1;P1;durP2;ratioP2;P2;SDS_P1;SDS_P2;PMS_P1;PMS_P2;Temp;Humidity;BMP_temperature;BMP_pressure;BME280_temperature;BME280_humidity;BME280_pressure;Samples;Min_cycle;Max_cycle;Signal;HPM_P1;HPM_P2
2023/05/09 00:01:30;;;;;;;;;;;19.20;55.20;;;;;;6296398;28;19912;-64
2023/05/09 00:04:31;;;;;;;;;;;19.20;55.30;;;;;;6296563;28;19915;-64
2023/05/09 00:07:32;;;;;;;;;;;19.20;55.30;;;;;;6291743;28;20263;-65
2023/05/09 00:10:33;;;;;;;;;;;19.20;55.30;;;;;;6271392;28;19923;-63
2023/05/09 00:13:33;;;;;;;;;;;19.20;55.30;;;;;;6291420;28;19912;-65
2023/05/09 00:16:35;;;;;;;;;;;19.20;55.20;;;;;;6296510;28;19916;-64
2023/05/09 00:19:36;;;;;;;;;;;19.20;55.20;;;;;;6295194;28;20417;-64
2023/05/09 00:22:40;;;;;;;;;;;19.20;55.20;;;;;;6296063;28;19943;-64
2023/05/09 00:25:41;;;;;;;;;;;19.20;55.20;;;;;;6295728;28;19915;-65
2023/05/09 00:28:42;;;;;;;;;;;19.20;55.20;;;;;;6277949;28;19912;-65
2023/05/09 00:31:42;;;;;;;;;;;19.20;55.30;;;;;;6295486;28;19921;-65
2023/05/09 00:34:43;;;;;;;;;;;19.10;55.20;;;;;;6295739;28;20022;-64
2023/05/09 00:37:43;;;;;;;;;;;19.20;55.30;;;;;;6295869;28;19936;-64
2023/05/09 00:40:44;;;;;;;;;;;19.20;55.30;;;;;;6295417;28;19917;-64
2023/05/09 00:43:45;;;;;;;;;;;19.20;55.30;;;;;;6277499;28;20007;-64
2023/05/09 00:46:46;;;;;;;;;;;19.20;55.30;;;;;;6295069;28;19925;-64
2023/05/09 00:49:46;;;;;;;;;;;19.20;55.30;;;;;;6295490;28;19913;-64
2023/05/09 00:52:47;;;;;;;;;;;19.20;55.30;;;;;;6277255;28;19919;-64
2023/05/09 00:55:48;;;;;;;;;;;19.20;55.30;;;;;;6295047;28;20006;-64
2023/05/09 00:58:49;;;;;;;;;;;19.20;55.30;;;;;;6295084;28;19913;-65
2023/05/09 01:01:49;;;;;;;;;;;19.20;55.30;;;;;;6294624;28;20331;-64
2023/05/09 01:04:50;;;;;;;;;;;19.20;55.30;;;;;;6276758;28;19974;-64
2023/05/09 01:07:54;;;;;;;;;;;19.20;55.30;;;;;;6295154;28;19920;-64
2023/05/09 01:11:24;;;;;;;;;;;19.20;55.30;;;;;;6294832;28;19909;-64
2023/05/09 01:14:51;;;;;;;;;;;19.20;55.30;;;;;;6276690;28;19912;-65
2023/05/09 01:18:10;;;;;;;;;;;19.20;55.30;;;;;;6294681;28;19909;-64
2023/05/09 01:21:14;;;;;;;;;;;19.20;55.40;;;;;;6294708;28;19912;-65
2023/05/09 01:24:23;;;;;;;;;;;19.20;55.30;;;;;;6294249;28;19909;-64
2023/05/09 01:27:37;;;;;;;;;;;19.20;55.30;;;;;;6294524;28;20008;-63
2023/05/09 01:30:38;;;;;;;;;;;19.20;55.40;;;;;;6293730;28;19908;-64
2023/05/09 01:33:41;;;;;;;;;;;19.20;55.30;;;;;;6294396;28;19912;-64
2023/05/09 01:36:42;;;;;;;;;;;19.10;55.30;;;;;;6294236;28;19915;-64
2023/05/09 01:39:45;;;;;;;;;;;19.20;55.30;;;;;;6294478;28;19966;-64
2023/05/09 01:43:02;;;;;;;;;;;19.20;55.40;;;;;;6294277;28;19912;-64
2023/05/09 01:46:04;;;;;;;;;;;19.20;55.30;;;;;;6293773;28;20022;-65
2023/05/09 01:49:06;;;;;;;;;;;19.20;55.30;;;;;;6294099;28;19920;-64
2023/05/09 01:52:10;;;;;;;;;;;19.20;55.30;;;;;;6294230;28;19909;-64
2023/05/09 01:55:11;;;;;;;;;;;19.20;55.30;;;;;;6275677;28;19958;-64
2023/05/09 01:58:12;;;;;;;;;;;19.20;55.30;;;;;;6276169;28;20542;-64
2023/05/09 02:01:13;;;;;;;;;;;19.20;55.40;;;;;;6293556;28;19917;-64
2023/05/09 02:04:15;;;;;;;;;;;19.20;55.40;;;;;;6275825;28;20388;-64
2023/05/09 02:07:15;;;;;;;;;;;19.10;55.20;;;;;;6293477;28;19908;-64
2023/05/09 02:10:16;;;;;;;;;;;19.20;55.40;;;;;;6293940;28;19931;-64
2023/05/09 02:13:17;;;;;;;;;;;19.20;55.30;;;;;;6293922;28;19908;-64
2023/05/09 02:16:17;;;;;;;;;;;19.20;56.00;;;;;;6293715;28;19915;-64
2023/05/09 02:19:18;;;;;;;;;;;19.20;55.40;;;;;;6293584;28;19952;-64
2023/05/09 02:22:19;;;;;;;;;;;19.20;55.40;;;;;;6293322;28;19962;-63
2023/05/09 02:25:19;;;;;;;;;;;19.20;55.40;;;;;;6293346;28;19951;-65
2023/05/09 02:28:22;;;;;;;;;;;19.20;55.30;;;;;;6293487;28;19908;-64
2023/05/09 02:31:24;;;;;;;;;;;19.20;55.40;;;;;;6293784;28;19970;-64
2023/05/09 02:34:25;;;;;;;;;;;19.20;55.40;;;;;;6293607;28;19963;-64
2023/05/09 02:37:26;;;;;;;;;;;19.20;55.40;;;;;;6293273;28;20309;-64
2023/05/09 02:40:28;;;;;;;;;;;19.20;55.40;;;;;;6293546;28;19962;-64
2023/05/09 02:43:28;;;;;;;;;;;19.20;55.40;;;;;;6279473;28;19995;-65
2023/05/09 02:46:30;;;;;;;;;;;19.20;55.30;;;;;;6298254;28;20588;-65
2023/05/09 02:49:31;;;;;;;;;;;19.20;55.30;;;;;;6298263;28;19916;-64
2023/05/09 02:52:31;;;;;;;;;;;19.20;55.30;;;;;;6298199;28;19909;-64
2023/05/09 02:55:32;;;;;;;;;;;19.20;55.30;;;;;;6297765;28;19908;-65
2023/05/09 02:58:33;;;;;;;;;;;19.20;55.30;;;;;;6297963;28;19912;-64
2023/05/09 03:01:33;;;;;;;;;;;19.20;55.30;;;;;;6297928;28;19916;-64
2023/05/09 03:04:34;;;;;;;;;;;19.20;55.30;;;;;;6298119;28;19909;-64
2023/05/09 03:07:34;;;;;;;;;;;19.20;55.30;;;;;;6297083;28;20373;-64
2023/05/09 03:10:35;;;;;;;;;;;19.20;55.30;;;;;;6297744;28;19991;-64
2023/05/09 03:13:36;;;;;;;;;;;19.20;55.30;;;;;;6297749;28;19908;-64
2023/05/09 03:16:36;;;;;;;;;;;19.20;55.30;;;;;;6297428;28;20046;-64
2023/05/09 03:19:37;;;;;;;;;;;19.20;55.30;;;;;;6297418;28;19909;-65
2023/05/09 03:22:37;;;;;;;;;;;19.20;55.30;;;;;;6279730;28;20346;-64
2023/05/09 03:25:38;;;;;;;;;;;19.20;55.30;;;;;;6297419;28;19916;-64
2023/05/09 03:28:39;;;;;;;;;;;19.20;55.20;;;;;;6297099;28;19917;-64
2023/05/09 03:31:39;;;;;;;;;;;19.20;55.30;;;;;;6297419;28;19938;-64
2023/05/09 03:34:40;;;;;;;;;;;19.20;55.30;;;;;;6279113;28;20404;-65
2023/05/09 03:37:40;;;;;;;;;;;19.20;55.20;;;;;;6279132;28;19962;-64
2023/05/09 03:40:41;;;;;;;;;;;19.20;55.30;;;;;;6297038;28;19971;-64
2023/05/09 03:43:42;;;;;;;;;;;19.20;55.30;;;;;;6297300;28;19916;-65
2023/05/09 03:46:42;;;;;;;;;;;19.20;55.30;;;;;;6296634;28;19924;-64
2023/05/09 03:49:43;;;;;;;;;;;19.20;55.40;;;;;;6297007;28;19916;-64
2023/05/09 03:52:43;;;;;;;;;;;19.20;55.40;;;;;;6296398;28;19916;-65
2023/05/09 03:55:44;;;;;;;;;;;19.20;55.30;;;;;;6295912;28;19938;-64
2023/05/09 04:02:22;;;;;;;;;;;19.20;55.40;;;;;;6296509;28;19999;-64
2023/05/09 04:05:24;;;;;;;;;;;19.20;55.20;;;;;;6296580;28;19919;-63
2023/05/09 04:08:24;;;;;;;;;;;19.20;55.30;;;;;;6295533;28;19918;-64
2023/05/09 04:11:25;;;;;;;;;;;19.20;55.20;;;;;;6296154;28;19908;-65
2023/05/09 04:14:26;;;;;;;;;;;19.20;55.30;;;;;;6296088;28;19916;-64
2023/05/09 04:17:27;;;;;;;;;;;19.20;55.30;;;;;;6295929;28;19909;-65
2023/05/09 04:20:28;;;;;;;;;;;19.20;55.20;;;;;;6295406;28;19916;-64
2023/05/09 04:23:28;;;;;;;;;;;19.20;55.20;;;;;;6295763;28;19908;-64
2023/05/09 04:26:30;;;;;;;;;;;19.20;55.30;;;;;;6277433;28;19931;-64
2023/05/09 04:29:31;;;;;;;;;;;19.20;55.30;;;;;;6296016;28;19916;-68
2023/05/09 04:32:31;;;;;;;;;;;19.20;55.30;;;;;;6320896;28;20042;-68
2023/05/09 04:35:32;;;;;;;;;;;19.20;55.20;;;;;;6299890;28;19908;-69
2023/05/09 04:38:33;;;;;;;;;;;19.10;55.10;;;;;;6288359;28;19916;-68
2023/05/09 04:41:33;;;;;;;;;;;19.10;55.00;;;;;;6291461;28;19923;-68
2023/05/09 04:44:34;;;;;;;;;;;19.10;52.90;;;;;;6295034;28;19908;-68
2023/05/09 04:47:35;;;;;;;;;;;19.10;52.50;;;;;;6277393;28;19996;-68
2023/05/09 04:50:35;;;;;;;;;;;19.20;52.20;;;;;;6293069;28;19913;-68
2023/05/09 04:53:36;;;;;;;;;;;19.20;51.10;;;;;;6292998;28;19908;-68
2023/05/09 04:56:37;;;;;;;;;;;19.20;52.20;;;;;;6309637;28;19912;-68
2023/05/09 04:59:37;;;;;;;;;;;19.20;51.10;;;;;;6314570;28;19970;-68
2023/05/09 05:02:38;;;;;;;;;;;19.20;52.00;;;;;;6319981;28;19916;-69
2023/05/09 05:05:40;;;;;;;;;;;19.20;49.90;;;;;;6320374;28;19912;-68
2023/05/09 05:08:40;;;;;;;;;;;19.20;50.20;;;;;;6309999;28;19967;-68
2023/05/09 05:11:41;;;;;;;;;;;19.10;49.20;;;;;;6294733;28;19912;-66
2023/05/09 05:14:42;;;;;;;;;;;19.10;48.40;;;;;;6294189;28;19915;-66
2023/05/09 05:17:42;;;;;;;;;;;19.10;48.70;;;;;;6294390;28;20016;-66
2023/05/09 05:20:43;;;;;;;;;;;19.20;49.20;;;;;;6294619;28;19955;-66
2023/05/09 05:23:43;;;;;;;;;;;19.20;49.50;;;;;;6294071;28;19908;-65
2023/05/09 05:26:44;;;;;;;;;;;19.20;50.10;;;;;;6294389;28;19913;-70
2023/05/09 05:29:44;;;;;;;;;;;19.20;50.20;;;;;;6289273;28;19992;-70
2023/05/09 05:32:45;;;;;;;;;;;19.20;51.00;;;;;;6294241;28;19908;-70
2023/05/09 05:35:46;;;;;;;;;;;19.20;51.40;;;;;;6294027;28;19932;-70
2023/05/09 05:38:46;;;;;;;;;;;19.20;51.40;;;;;;6269586;28;19908;-69
2023/05/09 05:41:47;;;;;;;;;;;19.20;51.70;;;;;;6294018;28;19951;-68
2023/05/09 05:44:47;;;;;;;;;;;19.20;52.20;;;;;;6293778;28;19920;-70
2023/05/09 05:47:48;;;;;;;;;;;19.20;52.40;;;;;;6266234;28;20015;-69
2023/05/09 05:50:48;;;;;;;;;;;19.20;52.60;;;;;;6284470;28;19912;-71
2023/05/09 05:53:49;;;;;;;;;;;19.20;52.70;;;;;;6294164;28;19908;-71
2023/05/09 05:56:50;;;;;;;;;;;19.30;52.50;;;;;;6293791;28;19925;-68
2023/05/09 05:59:50;;;;;;;;;;;19.30;53.70;;;;;;6277037;28;19999;-70
2023/05/09 06:02:51;;;;;;;;;;;19.30;53.20;;;;;;6296052;28;20396;-70
2023/05/09 06:05:51;;;;;;;;;;;19.30;52.90;;;;;;6295874;28;20011;-66
2023/05/09 06:08:52;;;;;;;;;;;19.30;52.40;;;;;;6277556;28;19913;-66
2023/05/09 06:11:53;;;;;;;;;;;19.30;52.50;;;;;;6295502;28;20013;-66
2023/05/09 06:14:53;;;;;;;;;;;19.30;52.60;;;;;;6299900;28;19916;-66
2023/05/09 06:17:54;;;;;;;;;;;19.30;52.60;;;;;;6319162;28;19908;-67
2023/05/09 06:20:55;;;;;;;;;;;19.30;52.70;;;;;;6295366;28;19912;-67
2023/05/09 06:23:57;;;;;;;;;;;19.30;52.70;;;;;;6277403;28;19944;-67
2023/05/09 06:26:59;;;;;;;;;;;19.30;52.80;;;;;;6294405;28;19915;-66
2023/05/09 06:29:59;;;;;;;;;;;19.30;52.90;;;;;;6289359;28;19916;-66
2023/05/09 06:33:00;;;;;;;;;;;19.30;52.90;;;;;;6295008;28;19913;-67
2023/05/09 06:36:00;;;;;;;;;;;19.30;52.90;;;;;;6294592;28;19913;-67
2023/05/09 06:39:01;;;;;;;;;;;19.30;53.10;;;;;;6272120;28;19912;-67
2023/05/09 06:42:02;;;;;;;;;;;19.30;53.10;;;;;;6299178;28;19912;-67
2023/05/09 06:45:03;;;;;;;;;;;19.30;53.20;;;;;;6306575;28;19930;-67
2023/05/09 06:48:04;;;;;;;;;;;19.30;53.10;;;;;;6295243;28;19913;-67
2023/05/09 06:51:05;;;;;;;;;;;19.30;53.20;;;;;;6295169;28;19970;-68
2023/05/09 06:54:05;;;;;;;;;;;19.30;53.30;;;;;;6272144;28;19912;-67
2023/05/09 06:57:06;;;;;;;;;;;19.30;53.30;;;;;;6276871;28;19959;-67
2023/05/09 07:00:08;;;;;;;;;;;19.30;53.40;;;;;;6294775;28;19909;-68
2023/05/09 07:03:09;;;;;;;;;;;19.30;53.40;;;;;;6277120;28;20361;-68
2023/05/09 07:06:10;;;;;;;;;;;19.30;53.40;;;;;;6273356;28;20344;-67
2023/05/09 07:09:13;;;;;;;;;;;19.30;53.40;;;;;;6294589;28;19912;-67
2023/05/09 07:12:14;;;;;;;;;;;19.30;53.50;;;;;;6291133;28;19912;-67
2023/05/09 07:15:14;;;;;;;;;;;19.30;53.60;;;;;;6293945;28;19935;-67
2023/05/09 07:18:15;;;;;;;;;;;19.30;53.50;;;;;;6295235;28;20350;-67
2023/05/09 07:21:16;;;;;;;;;;;19.30;53.60;;;;;;6301505;28;19912;-68
2023/05/09 07:24:16;;;;;;;;;;;19.30;53.40;;;;;;6311129;28;19998;-68
2023/05/09 07:27:17;;;;;;;;;;;19.30;53.70;;;;;;6294492;28;19918;-68
2023/05/09 07:30:18;;;;;;;;;;;19.30;53.70;;;;;;6297579;28;20003;-68
2023/05/09 07:33:18;;;;;;;;;;;19.30;53.60;;;;;;6298609;28;19908;-68
2023/05/09 07:36:19;;;;;;;;;;;19.30;53.70;;;;;;6280250;28;19915;-66
2023/05/09 07:39:20;;;;;;;;;;;19.30;53.70;;;;;;6305766;28;19915;-67
2023/05/09 07:42:21;;;;;;;;;;;19.30;53.90;;;;;;6320645;28;19912;-67
2023/05/09 07:45:21;;;;;;;;;;;19.30;53.70;;;;;;6298198;28;19921;-68
2023/05/09 07:48:22;;;;;;;;;;;19.40;53.80;;;;;;6286362;28;20395;-68
2023/05/09 07:51:23;;;;;;;;;;;19.40;53.90;;;;;;6298616;28;19908;-69
2023/05/09 07:54:23;;;;;;;;;;;19.30;54.30;;;;;;6285582;28;20338;-68
2023/05/09 07:57:24;;;;;;;;;;;19.30;53.70;;;;;;6299543;28;19909;-68
2023/05/09 08:00:25;;;;;;;;;;;19.30;53.70;;;;;;6287460;28;19916;-67
2023/05/09 08:03:25;;;;;;;;;;;19.30;53.70;;;;;;6280317;28;20413;-68
2023/05/09 08:06:26;;;;;;;;;;;19.30;53.80;;;;;;6292212;28;19955;-68
2023/05/09 08:09:27;;;;;;;;;;;19.30;53.70;;;;;;6295166;28;19909;-68
2023/05/09 08:12:27;;;;;;;;;;;19.30;53.80;;;;;;6279879;28;19908;-68
2023/05/09 08:15:28;;;;;;;;;;;19.30;53.90;;;;;;6279585;28;19908;-68
2023/05/09 08:18:29;;;;;;;;;;;19.30;53.80;;;;;;6295236;28;19924;-68
2023/05/09 08:21:29;;;;;;;;;;;19.30;53.90;;;;;;6297698;28;19944;-68
2023/05/09 08:24:31;;;;;;;;;;;19.30;53.80;;;;;;6279340;28;19916;-68
2023/05/09 08:27:32;;;;;;;;;;;19.40;53.60;;;;;;6297565;28;19912;-68
2023/05/09 08:30:32;;;;;;;;;;;19.40;53.40;;;;;;6297053;28;20292;-68
2023/05/09 08:33:33;;;;;;;;;;;19.40;53.40;;;;;;6279643;28;20304;-69
2023/05/09 08:36:34;;;;;;;;;;;19.40;53.60;;;;;;6296720;28;19919;-66
2023/05/09 08:39:34;;;;;;;;;;;19.40;53.60;;;;;;6296587;28;19908;-68
2023/05/09 08:42:35;;;;;;;;;;;19.40;53.60;;;;;;6297003;28;20373;-66
2023/05/09 08:45:49;;;;;;;;;;;19.40;53.70;;;;;;6296367;28;19971;-68
2023/05/09 08:48:50;;;;;;;;;;;19.40;53.80;;;;;;6278795;28;19982;-68
2023/05/09 08:51:51;;;;;;;;;;;19.30;53.80;;;;;;6296970;28;19909;-67
2023/05/09 08:54:52;;;;;;;;;;;19.30;53.80;;;;;;6278227;28;19908;-68
2023/05/09 08:57:52;;;;;;;;;;;19.30;53.70;;;;;;6278962;28;19909;-68
2023/05/09 09:00:54;;;;;;;;;;;19.30;53.60;;;;;;6296401;28;19916;-68
2023/05/09 09:03:55;;;;;;;;;;;19.30;53.50;;;;;;6296768;28;19908;-67
2023/05/09 09:06:56;;;;;;;;;;;19.30;53.60;;;;;;6296099;28;19931;-67
2023/05/09 09:09:57;;;;;;;;;;;19.30;53.60;;;;;;6296623;28;19954;-66
2023/05/09 09:12:59;;;;;;;;;;;19.30;53.50;;;;;;6271888;28;19913;-68
2023/05/09 09:16:00;;;;;;;;;;;19.30;53.50;;;;;;6278859;28;19913;-66
2023/05/09 09:19:01;;;;;;;;;;;19.30;54.20;;;;;;6278253;28;19966;-65
2023/05/09 09:22:03;;;;;;;;;;;19.30;53.80;;;;;;6296098;28;20365;-67
2023/05/09 09:25:04;;;;;;;;;;;19.30;53.70;;;;;;6261639;28;20014;-66
2023/05/09 09:28:05;;;;;;;;;;;19.30;53.70;;;;;;6300253;28;20357;-67
2023/05/09 09:31:27;;;;;;;;;;;19.30;53.90;;;;;;6304650;28;19952;-67
2023/05/09 09:34:28;;;;;;;;;;;19.30;53.70;;;;;;6308630;28;19929;-67
2023/05/09 09:37:28;;;;;;;;;;;19.30;53.80;;;;;;6275429;28;19941;-68
2023/05/09 09:40:29;;;;;;;;;;;19.30;54.00;;;;;;6271182;28;19909;-68
2023/05/09 09:43:30;;;;;;;;;;;19.30;53.80;;;;;;6277243;28;19965;-68
2023/05/09 09:46:39;;;;;;;;;;;19.30;54.00;;;;;;6294949;28;20297;-68
2023/05/09 09:49:44;;;;;;;;;;;19.30;53.90;;;;;;6295818;28;20450;-71
2023/05/09 09:52:48;;;;;;;;;;;19.30;54.00;;;;;;6294693;28;19958;-66
2023/05/09 09:55:50;;;;;;;;;;;19.30;53.90;;;;;;6294975;28;19954;-68
2023/05/09 09:59:06;;;;;;;;;;;19.30;54.00;;;;;;6269129;28;20027;-68
2023/05/09 10:02:07;;;;;;;;;;;19.30;54.00;;;;;;6279689;28;20015;-68
2023/05/09 10:05:07;;;;;;;;;;;19.30;53.90;;;;;;6295174;28;19908;-68
2023/05/09 10:08:08;;;;;;;;;;;19.30;54.00;;;;;;6285282;28;19908;-68
2023/05/09 10:11:09;;;;;;;;;;;19.30;54.00;;;;;;6279692;28;19984;-67
2023/05/09 10:14:10;;;;;;;;;;;19.30;54.00;;;;;;6277265;28;20365;-68
2023/05/09 10:17:12;;;;;;;;;;;19.30;54.00;;;;;;6302578;28;19908;-68
2023/05/09 10:20:13;;;;;;;;;;;19.30;54.10;;;;;;6296699;28;19936;-68
2023/05/09 10:23:15;;;;;;;;;;;19.30;54.10;;;;;;6294929;28;19943;-68
2023/05/09 10:26:15;;;;;;;;;;;19.30;54.10;;;;;;6294966;28;19908;-67
2023/05/09 10:29:21;;;;;;;;;;;19.30;54.10;;;;;;6277022;28;19939;-67
2023/05/09 10:32:41;;;;;;;;;;;19.30;54.10;;;;;;6293117;28;19915;-68
2023/05/09 10:35:45;;;;;;;;;;;19.30;54.10;;;;;;6268560;28;19999;-67
2023/05/09 10:38:46;;;;;;;;;;;19.30;54.10;;;;;;6288010;28;20353;-66
2023/05/09 10:41:48;;;;;;;;;;;19.30;54.80;;;;;;6295001;28;19995;-67
2023/05/09 10:44:50;;;;;;;;;;;19.30;54.20;;;;;;6294519;28;19923;-68
2023/05/09 10:47:51;;;;;;;;;;;19.30;54.10;;;;;;6294832;28;20084;-68
2023/05/09 10:50:52;;;;;;;;;;;19.30;54.10;;;;;;6294858;28;19908;-68
2023/05/09 10:53:56;;;;;;;;;;;19.30;54.10;;;;;;6294311;28;20427;-68
2023/05/09 10:56:57;;;;;;;;;;;19.30;54.20;;;;;;6293746;28;19920;-68
2023/05/09 10:59:59;;;;;;;;;;;19.30;54.10;;;;;;6294487;28;19908;-66
2023/05/09 11:03:06;;;;;;;;;;;19.30;54.10;;;;;;6295324;28;20323;-67
2023/05/09 11:06:08;;;;;;;;;;;19.30;54.10;;;;;;6298846;28;19995;-66
2023/05/09 11:09:27;;;;;;;;;;;19.30;54.10;;;;;;6302556;28;20273;-67
2023/05/09 11:12:28;;;;;;;;;;;19.30;54.10;;;;;;6298952;28;19909;-67
2023/05/09 11:15:28;;;;;;;;;;;19.30;54.10;;;;;;6280894;28;19932;-67
2023/05/09 11:18:30;;;;;;;;;;;19.30;54.10;;;;;;6283965;28;19948;-65
2023/05/09 11:21:31;;;;;;;;;;;19.30;54.20;;;;;;6298575;28;19912;-66
2023/05/09 11:24:32;;;;;;;;;;;19.30;54.10;;;;;;6278989;28;19932;-65
2023/05/09 11:27:44;;;;;;;;;;;19.30;54.20;;;;;;6320391;28;19909;-65
2023/05/09 11:30:44;;;;;;;;;;;19.30;54.10;;;;;;6297738;28;19912;-64
2023/05/09 11:33:53;;;;;;;;;;;19.30;54.10;;;;;;6298452;28;19912;-63
2023/05/09 11:37:05;;;;;;;;;;;19.30;54.10;;;;;;6270990;28;19920;-64
2023/05/09 11:40:07;;;;;;;;;;;19.30;54.10;;;;;;6294845;28;20417;-64
2023/05/09 11:43:08;;;;;;;;;;;19.40;54.20;;;;;;6279058;28;19923;-65
2023/05/09 11:46:09;;;;;;;;;;;19.40;54.10;;;;;;6296633;28;20305;-66
2023/05/09 11:49:09;;;;;;;;;;;19.30;54.10;;;;;;6297065;28;20003;-66
2023/05/09 11:52:10;;;;;;;;;;;19.30;54.10;;;;;;6297641;28;19908;-66
2023/05/09 11:55:15;;;;;;;;;;;19.40;54.10;;;;;;6296196;28;19991;-66
2023/05/09 11:58:16;;;;;;;;;;;19.40;54.20;;;;;;6278804;28;19914;-66
2023/05/09 12:01:17;;;;;;;;;;;19.40;54.20;;;;;;6295882;28;20307;-65
2023/05/09 12:04:17;;;;;;;;;;;19.40;54.20;;;;;;6295744;28;19999;-66
2023/05/09 12:07:18;;;;;;;;;;;19.40;54.20;;;;;;6296876;28;19915;-66
2023/05/09 12:10:19;;;;;;;;;;;19.30;54.20;;;;;;6295831;28;19995;-65
2023/05/09 12:13:19;;;;;;;;;;;19.30;54.20;;;;;;6296518;28;19958;-65
2023/05/09 12:16:20;;;;;;;;;;;19.30;54.30;;;;;;6294698;28;19948;-65
2023/05/09 12:19:25;;;;;;;;;;;19.30;54.20;;;;;;6295892;28;19908;-66
2023/05/09 12:22:26;;;;;;;;;;;19.40;54.20;;;;;;6277937;28;19916;-67
2023/05/09 12:25:26;;;;;;;;;;;19.40;54.30;;;;;;6295883;28;19962;-67
2023/05/09 12:28:27;;;;;;;;;;;19.40;54.20;;;;;;6295137;28;19939;-65
2023/05/09 12:31:28;;;;;;;;;;;19.40;54.30;;;;;;6296043;28;20010;-70
2023/05/09 12:34:29;;;;;;;;;;;19.40;54.30;;;;;;6281005;28;20352;-66
2023/05/09 12:37:33;;;;;;;;;;;19.40;54.30;;;;;;6295912;28;19913;-65
2023/05/09 12:40:34;;;;;;;;;;;19.30;54.20;;;;;;6277483;28;20431;-65
2023/05/09 12:43:35;;;;;;;;;;;19.40;54.30;;;;;;6295243;28;19912;-65
2023/05/09 12:46:36;;;;;;;;;;;19.30;54.20;;;;;;6294668;28;20009;-64
2023/05/09 12:49:37;;;;;;;;;;;19.40;54.30;;;;;;6295185;28;20331;-64
2023/05/09 12:52:39;;;;;;;;;;;19.40;54.40;;;;;;6295674;28;20465;-64
2023/05/09 12:55:40;;;;;;;;;;;19.30;54.30;;;;;;6294535;28;19918;-64
2023/05/09 12:58:46;;;;;;;;;;;19.30;54.30;;;;;;6294857;28;19919;-65
2023/05/09 13:01:52;;;;;;;;;;;19.30;54.30;;;;;;6276934;28;20005;-65
2023/05/09 13:05:12;;;;;;;;;;;19.30;54.40;;;;;;6294269;28;19916;-65
2023/05/09 13:08:12;;;;;;;;;;;19.30;54.30;;;;;;6294945;28;20705;-65
2023/05/09 13:11:15;;;;;;;;;;;19.30;54.30;;;;;;6294959;28;19909;-65
2023/05/09 13:14:17;;;;;;;;;;;19.30;54.30;;;;;;6294694;28;19999;-65
2023/05/09 13:17:17;;;;;;;;;;;19.30;54.30;;;;;;6294220;28;19916;-64
2023/05/09 13:20:18;;;;;;;;;;;19.40;54.30;;;;;;6294233;28;19943;-65
2023/05/09 13:23:19;;;;;;;;;;;19.40;54.30;;;;;;6307716;28;19970;-65
2023/05/09 13:26:20;;;;;;;;;;;19.30;54.30;;;;;;6296300;28;19947;-65
2023/05/09 13:29:20;;;;;;;;;;;19.30;55.00;;;;;;6294373;28;19909;-65
2023/05/09 13:32:21;;;;;;;;;;;19.30;54.30;;;;;;6292395;28;19908;-65
2023/05/09 13:35:22;;;;;;;;;;;19.30;54.30;;;;;;6252119;28;19913;-64
2023/05/09 13:38:24;;;;;;;;;;;19.30;54.40;;;;;;6276555;28;19940;-65
2023/05/09 13:41:24;;;;;;;;;;;19.30;54.40;;;;;;6293984;28;19919;-65
2023/05/09 13:44:25;;;;;;;;;;;19.30;54.40;;;;;;6287821;28;19909;-65
2023/05/09 13:47:26;;;;;;;;;;;19.30;54.40;;;;;;6292884;28;19913;-65
2023/05/09 13:50:26;;;;;;;;;;;19.30;54.40;;;;;;6294086;28;19909;-65
2023/05/09 13:53:27;;;;;;;;;;;19.40;54.40;;;;;;6293958;28;19913;-65
2023/05/09 13:56:28;;;;;;;;;;;19.40;54.40;;;;;;6293414;28;19915;-65
2023/05/09 13:59:31;;;;;;;;;;;19.40;54.40;;;;;;6292169;28;19908;-65
2023/05/09 14:02:31;;;;;;;;;;;19.40;54.40;;;;;;6293217;28;19934;-65
2023/05/09 14:05:32;;;;;;;;;;;19.40;54.50;;;;;;6284087;28;20368;-65
2023/05/09 14:08:33;;;;;;;;;;;19.40;54.50;;;;;;6293704;28;19948;-65
2023/05/09 14:11:34;;;;;;;;;;;19.40;54.50;;;;;;6294000;28;19917;-65
2023/05/09 14:14:35;;;;;;;;;;;19.30;54.50;;;;;;6293485;28;19909;-64
2023/05/09 14:17:36;;;;;;;;;;;19.30;54.40;;;;;;6293166;28;19912;-65
2023/05/09 14:20:36;;;;;;;;;;;19.40;54.50;;;;;;6289905;28;19998;-65
2023/05/09 14:23:37;;;;;;;;;;;19.30;54.40;;;;;;6292578;28;19924;-65
2023/05/09 14:26:38;;;;;;;;;;;19.40;54.50;;;;;;6292816;28;19912;-65
2023/05/09 14:29:39;;;;;;;;;;;19.30;54.40;;;;;;6293437;28;20353;-65
2023/05/09 14:32:39;;;;;;;;;;;19.30;54.40;;;;;;6293408;28;19913;-65
2023/05/09 14:35:40;;;;;;;;;;;19.30;54.40;;;;;;6292992;28;19958;-65
2023/05/09 14:38:42;;;;;;;;;;;19.30;54.40;;;;;;6286277;28;19916;-65
2023/05/09 14:41:42;;;;;;;;;;;19.30;54.50;;;;;;6298303;28;19913;-64
2023/05/09 14:44:44;;;;;;;;;;;19.30;54.50;;;;;;6298338;28;20400;-65
2023/05/09 14:47:45;;;;;;;;;;;19.30;54.50;;;;;;6298301;28;20087;-65
2023/05/09 14:50:46;;;;;;;;;;;19.30;54.50;;;;;;6265863;28;19912;-65
2023/05/09 14:53:46;;;;;;;;;;;19.30;54.50;;;;;;6310444;28;19966;-65
2023/05/09 14:56:47;;;;;;;;;;;19.30;54.60;;;;;;6295296;28;19944;-65
2023/05/09 14:59:48;;;;;;;;;;;19.30;54.60;;;;;;6307173;28;19908;-65
2023/05/09 15:02:49;;;;;;;;;;;19.30;54.60;;;;;;6293049;28;19934;-65
2023/05/09 15:05:51;;;;;;;;;;;19.30;54.60;;;;;;6297198;28;19916;-65
2023/05/09 15:08:52;;;;;;;;;;;19.30;54.60;;;;;;6297455;28;19935;-65
2023/05/09 15:11:53;;;;;;;;;;;19.30;54.60;;;;;;6297955;28;20405;-65
2023/05/09 15:14:56;;;;;;;;;;;19.30;54.60;;;;;;6279532;28;20003;-65
2023/05/09 15:17:57;;;;;;;;;;;19.30;54.60;;;;;;6302410;28;19962;-65
2023/05/09 15:20:58;;;;;;;;;;;19.30;54.60;;;;;;6304631;28;20272;-65
2023/05/09 15:23:58;;;;;;;;;;;19.30;54.60;;;;;;6298362;28;19908;-65
2023/05/09 15:26:59;;;;;;;;;;;19.30;54.60;;;;;;6297313;28;19912;-65
2023/05/09 15:30:00;;;;;;;;;;;19.30;54.50;;;;;;6296743;28;19908;-65
2023/05/09 15:33:00;;;;;;;;;;;19.30;54.40;;;;;;6296992;28;19916;-65
2023/05/09 15:36:01;;;;;;;;;;;19.30;54.30;;;;;;6296530;28;19976;-65
2023/05/09 15:39:03;;;;;;;;;;;19.30;54.30;;;;;;6278755;28;19908;-65
2023/05/09 15:42:07;;;;;;;;;;;19.30;54.30;;;;;;6296973;28;19920;-65
2023/05/09 15:45:08;;;;;;;;;;;19.30;54.30;;;;;;6319350;28;20370;-65
2023/05/09 15:48:10;;;;;;;;;;;19.30;54.20;;;;;;6296880;28;20361;-65
2023/05/09 15:51:10;;;;;;;;;;;19.30;54.10;;;;;;6319116;28;19909;-65
2023/05/09 15:54:11;;;;;;;;;;;19.30;54.20;;;;;;6300281;28;19912;-65
2023/05/09 15:57:12;;;;;;;;;;;19.30;54.10;;;;;;6296153;28;20252;-65
2023/05/09 16:00:14;;;;;;;;;;;19.30;54.20;;;;;;6308468;28;20277;-65
2023/05/09 16:03:15;;;;;;;;;;;19.30;54.20;;;;;;6292825;28;20011;-66
2023/05/09 16:06:16;;;;;;;;;;;19.30;54.20;;;;;;6295329;28;19924;-65
2023/05/09 16:09:17;;;;;;;;;;;19.30;54.30;;;;;;6290567;28;19909;-66
2023/05/09 16:12:18;;;;;;;;;;;19.30;54.20;;;;;;6279032;28;19916;-65
2023/05/09 16:15:18;;;;;;;;;;;19.30;54.20;;;;;;6295228;28;19920;-65
2023/05/09 16:18:19;;;;;;;;;;;19.30;54.20;;;;;;6294544;28;19909;-65
2023/05/09 16:21:21;;;;;;;;;;;19.30;54.30;;;;;;6294396;28;19981;-65
2023/05/09 16:24:21;;;;;;;;;;;19.30;54.30;;;;;;6293227;28;19943;-64
2023/05/09 16:27:22;;;;;;;;;;;19.30;54.30;;;;;;6317465;28;19916;-66
2023/05/09 16:30:22;;;;;;;;;;;19.30;54.30;;;;;;6302290;28;19912;-65
2023/05/09 16:33:23;;;;;;;;;;;19.30;54.30;;;;;;6301491;28;20015;-65
2023/05/09 16:36:24;;;;;;;;;;;19.30;54.30;;;;;;6293502;28;19919;-65
2023/05/09 16:39:26;;;;;;;;;;;19.30;54.30;;;;;;6293143;28;20425;-65
2023/05/09 16:42:27;;;;;;;;;;;19.30;54.30;;;;;;6276941;28;19917;-65
2023/05/09 16:45:27;;;;;;;;;;;19.30;54.00;;;;;;6295492;28;19951;-65
2023/05/09 16:48:28;;;;;;;;;;;19.30;53.90;;;;;;6293533;28;19913;-65
2023/05/09 16:51:29;;;;;;;;;;;19.30;53.80;;;;;;6312256;28;20515;-65
2023/05/09 16:54:30;;;;;;;;;;;19.30;53.10;;;;;;6293161;28;20007;-65
2023/05/09 16:57:31;;;;;;;;;;;19.30;54.00;;;;;;6293216;28;19920;-65
2023/05/09 17:00:31;;;;;;;;;;;19.30;54.10;;;;;;6312940;28;20126;-65
2023/05/09 17:03:32;;;;;;;;;;;19.30;54.00;;;;;;6280264;28;19998;-65
2023/05/09 17:06:33;;;;;;;;;;;19.30;54.10;;;;;;6267196;28;20066;-65
2023/05/09 17:09:34;;;;;;;;;;;19.30;54.10;;;;;;6280379;28;19966;-65
2023/05/09 17:12:34;;;;;;;;;;;19.30;54.10;;;;;;6293048;28;19923;-64
2023/05/09 17:15:37;;;;;;;;;;;19.30;54.10;;;;;;6299497;28;20381;-65
2023/05/09 17:18:37;;;;;;;;;;;19.30;54.10;;;;;;6313356;28;20372;-65
2023/05/09 17:21:40;;;;;;;;;;;19.30;54.10;;;;;;6266360;28;19928;-65
2023/05/09 17:24:41;;;;;;;;;;;19.30;54.20;;;;;;6280634;28;20293;-65
2023/05/09 17:27:42;;;;;;;;;;;19.30;54.20;;;;;;6274009;28;19947;-65
2023/05/09 17:30:43;;;;;;;;;;;19.30;54.30;;;;;;6291850;28;19915;-65
2023/05/09 17:33:44;;;;;;;;;;;19.30;54.30;;;;;;6280481;28;20410;-65
2023/05/09 17:36:44;;;;;;;;;;;19.30;54.30;;;;;;6290988;28;19924;-65
2023/05/09 17:39:45;;;;;;;;;;;19.30;54.30;;;;;;6292506;28;19908;-65